sensor_id;sensor_type;location;lat;lon;timestamp;P1;durP1;ratioP1;P2;durP2;ratioP2
65162;SDS011;51751;55.714;37.436;2023-04-01T00:01:32;13.30;;;7.82;;
65162;SDS011;51751;55.714;37.436;2023-04-01T00:03:58;15.25;;;8.23;;
65162;SDS011;51751;55.714;37.436;2023-04-01T00:06:27;11.70;;;7.00;;
65162;SDS011;51751;55.714;37.436;2023-04-01T00:08:53;14.13;;;7.88;;
65162;SDS011;51751;55.714;37.436;2023-04-01T00:11:19;15.70;;;7.88;;
65162;SDS011;51751;55.714;37.436;2023-04-01T00:13:45;14.35;;;8.27;;
65162;SDS011;51751;55.714;37.436;2023-04-01T00:16:11;12.23;;;7.80;;
65162;SDS011;51751;55.714;37.436;2023-04-01T00:18:37;13.40;;;7.70;;
65162;SDS011;51751;55.714;37.436;2023-04-01T00:21:03;14.27;;;8.50;;
65162;SDS011;51751;55.714;37.436;2023-04-01T00:23:29;12.35;;;7.90;;
65162;SDS011;51751;55.714;37.436;2023-04-01T00:26:01;12.77;;;7.55;;
65162;SDS011;51751;55.714;37.436;2023-04-01T00:28:28;12.63;;;7.90;;
65162;SDS011;51751;55.714;37.436;2023-04-01T00:30:54;13.57;;;7.30;;
65162;SDS011;51751;55.714;37.436;2023-04-01T00:33:20;16.75;;;8.18;;
65162;SDS011;51751;55.714;37.436;2023-04-01T00:35:46;17.38;;;7.75;;
65162;SDS011;51751;55.714;37.436;2023-04-01T00:38:12;15.70;;;8.10;;
65162;SDS011;51751;55.714;37.436;2023-04-01T00:40:40;13.07;;;8.27;;
65162;SDS011;51751;55.714;37.436;2023-04-01T00:43:15;19.70;;;8.65;;
65162;SDS011;51751;55.714;37.436;2023-04-01T00:45:44;18.55;;;8.23;;
65162;SDS011;51751;55.714;37.436;2023-04-01T00:48:13;16.35;;;8.52;;
65162;SDS011;51751;55.714;37.436;2023-04-01T00:50:42;13.38;;;8.25;;
65162;SDS011;51751;55.714;37.436;2023-04-01T00:53:12;13.80;;;8.07;;
65162;SDS011;51751;55.714;37.436;2023-04-01T00:55:39;13.32;;;8.07;;
65162;SDS011;51751;55.714;37.436;2023-04-01T00:58:09;15.55;;;7.97;;
65162;SDS011;51751;55.714;37.436;2023-04-01T01:03:42;16.40;;;9.07;;
65162;SDS011;51751;55.714;37.436;2023-04-01T01:06:09;12.60;;;7.20;;
65162;SDS011;51751;55.714;37.436;2023-04-01T01:08:56;13.68;;;8.02;;
65162;SDS011;51751;55.714;37.436;2023-04-01T01:11:39;11.35;;;7.28;;
65162;SDS011;51751;55.714;37.436;2023-04-01T01:14:09;15.02;;;8.60;;
65162;SDS011;51751;55.714;37.436;2023-04-01T01:16:43;13.15;;;8.43;;
65162;SDS011;51751;55.714;37.436;2023-04-01T01:25:18;15.88;;;8.73;;
65162;SDS011;51751;55.714;37.436;2023-04-01T01:27:49;22.02;;;8.63;;
65162;SDS011;51751;55.714;37.436;2023-04-01T01:33:06;17.35;;;9.15;;
65162;SDS011;51751;55.714;37.436;2023-04-01T01:35:36;15.82;;;8.68;;
65162;SDS011;51751;55.714;37.436;2023-04-01T01:38:13;12.95;;;8.00;;
65162;SDS011;51751;55.714;37.436;2023-04-01T01:40:45;11.55;;;7.80;;
65162;SDS011;51751;55.714;37.436;2023-04-01T01:43:12;12.52;;;8.00;;
65162;SDS011;51751;55.714;37.436;2023-04-01T01:45:43;13.05;;;8.13;;
65162;SDS011;51751;55.714;37.436;2023-04-01T01:48:11;11.60;;;7.10;;
65162;SDS011;51751;55.714;37.436;2023-04-01T01:50:37;10.57;;;7.13;;
65162;SDS011;51751;55.714;37.436;2023-04-01T01:53:06;12.15;;;7.55;;
65162;SDS011;51751;55.714;37.436;2023-04-01T01:55:35;12.20;;;7.43;;
65162;SDS011;51751;55.714;37.436;2023-04-01T01:58:11;13.32;;;6.75;;
65162;SDS011;51751;55.714;37.436;2023-04-01T02:00:49;11.77;;;7.20;;
65162;SDS011;51751;55.714;37.436;2023-04-01T02:03:17;13.38;;;7.25;;
65162;SDS011;51751;55.714;37.436;2023-04-01T02:05:45;11.25;;;6.97;;
65162;SDS011;51751;55.714;37.436;2023-04-01T02:08:16;12.68;;;8.07;;
65162;SDS011;51751;55.714;37.436;2023-04-01T02:10:49;15.48;;;8.27;;
65162;SDS011;51751;55.714;37.436;2023-04-01T02:13:26;10.15;;;6.97;;
65162;SDS011;51751;55.714;37.436;2023-04-01T02:15:56;10.95;;;7.47;;
65162;SDS011;51751;55.714;37.436;2023-04-01T02:18:26;11.07;;;7.45;;
65162;SDS011;51751;55.714;37.436;2023-04-01T02:20:53;10.55;;;6.72;;
65162;SDS011;51751;55.714;37.436;2023-04-01T02:23:21;12.02;;;7.03;;
65162;SDS011;51751;55.714;37.436;2023-04-01T02:25:48;11.07;;;7.28;;
65162;SDS011;51751;55.714;37.436;2023-04-01T02:28:15;11.27;;;7.07;;
65162;SDS011;51751;55.714;37.436;2023-04-01T02:30:45;11.52;;;7.45;;
65162;SDS011;51751;55.714;37.436;2023-04-01T02:33:11;13.25;;;7.80;;
65162;SDS011;51751;55.714;37.436;2023-04-01T02:35:37;12.27;;;7.88;;
65162;SDS011;51751;55.714;37.436;2023-04-01T02:38:04;14.70;;;7.05;;
65162;SDS011;51751;55.714;37.436;2023-04-01T02:40:40;11.85;;;7.50;;
65162;SDS011;51751;55.714;37.436;2023-04-01T02:43:16;12.73;;;7.70;;
65162;SDS011;51751;55.714;37.436;2023-04-01T02:45:43;13.05;;;8.00;;
65162;SDS011;51751;55.714;37.436;2023-04-01T02:48:09;11.85;;;7.15;;
65162;SDS011;51751;55.714;37.436;2023-04-01T02:50:35;12.45;;;7.20;;
65162;SDS011;51751;55.714;37.436;2023-04-01T02:53:01;12.20;;;7.40;;
65162;SDS011;51751;55.714;37.436;2023-04-01T02:55:29;10.73;;;7.50;;
65162;SDS011;51751;55.714;37.436;2023-04-01T02:57:56;13.10;;;7.80;;
65162;SDS011;51751;55.714;37.436;2023-04-01T03:00:22;16.13;;;8.40;;
65162;SDS011;51751;55.714;37.436;2023-04-01T03:02:48;16.38;;;9.35;;
65162;SDS011;51751;55.714;37.436;2023-04-01T03:05:13;22.30;;;9.13;;
65162;SDS011;51751;55.714;37.436;2023-04-01T03:07:40;23.73;;;9.07;;
65162;SDS011;51751;55.714;37.436;2023-04-01T03:10:06;21.25;;;9.63;;
65162;SDS011;51751;55.714;37.436;2023-04-01T03:12:33;28.55;;;10.00;;
65162;SDS011;51751;55.714;37.436;2023-04-01T03:14:59;29.90;;;8.82;;
65162;SDS011;51751;55.714;37.436;2023-04-01T03:17:25;28.27;;;8.52;;
65162;SDS011;51751;55.714;37.436;2023-04-01T03:19:52;15.52;;;8.60;;
65162;SDS011;51751;55.714;37.436;2023-04-01T03:22:18;16.40;;;8.60;;
65162;SDS011;51751;55.714;37.436;2023-04-01T03:24:46;16.60;;;8.45;;
65162;SDS011;51751;55.714;37.436;2023-04-01T03:27:13;15.23;;;7.97;;
65162;SDS011;51751;55.714;37.436;2023-04-01T03:29:39;14.07;;;8.50;;
65162;SDS011;51751;55.714;37.436;2023-04-01T03:32:05;14.18;;;8.52;;
65162;SDS011;51751;55.714;37.436;2023-04-01T03:34:31;17.15;;;8.10;;
65162;SDS011;51751;55.714;37.436;2023-04-01T03:36:57;14.07;;;8.00;;
65162;SDS011;51751;55.714;37.436;2023-04-01T03:39:23;17.13;;;8.05;;
65162;SDS011;51751;55.714;37.436;2023-04-01T03:41:49;17.08;;;8.52;;
65162;SDS011;51751;55.714;37.436;2023-04-01T03:44:15;15.10;;;8.80;;
65162;SDS011;51751;55.714;37.436;2023-04-01T03:46:41;17.20;;;8.65;;
65162;SDS011;51751;55.714;37.436;2023-04-01T03:49:08;14.48;;;8.52;;
65162;SDS011;51751;55.714;37.436;2023-04-01T03:51:40;16.63;;;9.05;;
65162;SDS011;51751;55.714;37.436;2023-04-01T03:54:07;19.25;;;8.57;;
65162;SDS011;51751;55.714;37.436;2023-04-01T03:56:34;23.88;;;9.35;;
65162;SDS011;51751;55.714;37.436;2023-04-01T03:59:04;25.30;;;9.50;;
65162;SDS011;51751;55.714;37.436;2023-04-01T04:01:31;19.08;;;9.10;;
65162;SDS011;51751;55.714;37.436;2023-04-01T04:03:57;33.47;;;9.52;;
65162;SDS011;51751;55.714;37.436;2023-04-01T04:06:23;24.02;;;9.48;;
65162;SDS011;51751;55.714;37.436;2023-04-01T04:08:52;19.77;;;9.02;;
65162;SDS011;51751;55.714;37.436;2023-04-01T04:11:19;18.98;;;8.75;;
65162;SDS011;51751;55.714;37.436;2023-04-01T04:13:46;16.85;;;8.52;;
65162;SDS011;51751;55.714;37.436;2023-04-01T04:16:14;20.08;;;9.13;;
65162;SDS011;51751;55.714;37.436;2023-04-01T04:18:45;19.60;;;9.25;;
65162;SDS011;51751;55.714;37.436;2023-04-01T04:21:12;22.08;;;9.50;;
65162;SDS011;51751;55.714;37.436;2023-04-01T04:23:39;17.15;;;8.65;;
65162;SDS011;51751;55.714;37.436;2023-04-01T04:26:06;19.25;;;9.50;;
65162;SDS011;51751;55.714;37.436;2023-04-01T04:28:33;17.67;;;9.57;;
65162;SDS011;51751;55.714;37.436;2023-04-01T04:31:00;15.95;;;9.32;;
65162;SDS011;51751;55.714;37.436;2023-04-01T04:33:26;17.58;;;9.00;;
65162;SDS011;51751;55.714;37.436;2023-04-01T04:35:55;20.42;;;9.20;;
65162;SDS011;51751;55.714;37.436;2023-04-01T04:38:22;16.73;;;8.88;;
65162;SDS011;51751;55.714;37.436;2023-04-01T04:40:48;16.75;;;8.18;;
65162;SDS011;51751;55.714;37.436;2023-04-01T04:43:14;16.15;;;8.68;;
65162;SDS011;51751;55.714;37.436;2023-04-01T04:45:41;12.60;;;7.88;;
65162;SDS011;51751;55.714;37.436;2023-04-01T04:48:09;19.63;;;8.05;;
65162;SDS011;51751;55.714;37.436;2023-04-01T04:50:37;19.45;;;8.68;;
65162;SDS011;51751;55.714;37.436;2023-04-01T04:53:03;19.23;;;9.27;;
65162;SDS011;51751;55.714;37.436;2023-04-01T04:55:31;14.05;;;8.23;;
65162;SDS011;51751;55.714;37.436;2023-04-01T04:58:19;18.30;;;8.43;;
65162;SDS011;51751;55.714;37.436;2023-04-01T05:00:46;18.35;;;8.55;;
65162;SDS011;51751;55.714;37.436;2023-04-01T05:03:19;15.82;;;8.25;;
65162;SDS011;51751;55.714;37.436;2023-04-01T05:05:49;14.30;;;7.45;;
65162;SDS011;51751;55.714;37.436;2023-04-01T05:08:19;12.38;;;7.53;;
65162;SDS011;51751;55.714;37.436;2023-04-01T05:10:45;13.43;;;7.40;;
65162;SDS011;51751;55.714;37.436;2023-04-01T05:13:11;13.40;;;7.68;;
65162;SDS011;51751;55.714;37.436;2023-04-01T05:15:37;10.63;;;6.80;;
65162;SDS011;51751;55.714;37.436;2023-04-01T05:18:04;12.95;;;7.50;;
65162;SDS011;51751;55.714;37.436;2023-04-01T05:20:29;14.55;;;8.27;;
65162;SDS011;51751;55.714;37.436;2023-04-01T05:22:56;13.38;;;7.47;;
65162;SDS011;51751;55.714;37.436;2023-04-01T05:25:23;11.93;;;7.72;;
65162;SDS011;51751;55.714;37.436;2023-04-01T05:27:49;15.38;;;8.38;;
65162;SDS011;51751;55.714;37.436;2023-04-01T05:30:15;13.70;;;8.60;;
65162;SDS011;51751;55.714;37.436;2023-04-01T05:33:01;17.08;;;8.80;;
65162;SDS011;51751;55.714;37.436;2023-04-01T05:35:27;15.77;;;8.23;;
65162;SDS011;51751;55.714;37.436;2023-04-01T05:37:53;17.95;;;8.10;;
65162;SDS011;51751;55.714;37.436;2023-04-01T05:40:20;14.93;;;8.43;;
65162;SDS011;51751;55.714;37.436;2023-04-01T05:42:46;20.98;;;8.43;;
65162;SDS011;51751;55.714;37.436;2023-04-01T05:45:12;15.30;;;8.20;;
65162;SDS011;51751;55.714;37.436;2023-04-01T05:47:59;14.57;;;8.30;;
65162;SDS011;51751;55.714;37.436;2023-04-01T05:50:27;20.15;;;9.60;;
65162;SDS011;51751;55.714;37.436;2023-04-01T05:52:53;19.77;;;9.13;;
65162;SDS011;51751;55.714;37.436;2023-04-01T05:55:20;20.08;;;8.68;;
65162;SDS011;51751;55.714;37.436;2023-04-01T05:57:46;17.58;;;9.43;;
65162;SDS011;51751;55.714;37.436;2023-04-01T06:00:13;18.17;;;9.20;;
65162;SDS011;51751;55.714;37.436;2023-04-01T06:02:40;19.98;;;8.75;;
65162;SDS011;51751;55.714;37.436;2023-04-01T06:05:13;20.27;;;9.05;;
65162;SDS011;51751;55.714;37.436;2023-04-01T06:07:55;19.05;;;9.23;;
65162;SDS011;51751;55.714;37.436;2023-04-01T06:10:29;20.40;;;9.50;;
65162;SDS011;51751;55.714;37.436;2023-04-01T06:13:13;17.05;;;9.70;;
65162;SDS011;51751;55.714;37.436;2023-04-01T06:22:12;20.33;;;8.85;;
65162;SDS011;51751;55.714;37.436;2023-04-01T06:24:21;15.75;;;8.05;;
65162;SDS011;51751;55.714;37.436;2023-04-01T06:32:45;20.75;;;9.13;;
65162;SDS011;51751;55.714;37.436;2023-04-01T06:40:46;17.95;;;10.02;;
65162;SDS011;51751;55.714;37.436;2023-04-01T06:46:32;15.68;;;9.02;;
65162;SDS011;51751;55.714;37.436;2023-04-01T06:55:17;17.67;;;9.27;;
65162;SDS011;51751;55.714;37.436;2023-04-01T07:00:43;17.08;;;8.95;;
65162;SDS011;51751;55.714;37.436;2023-04-01T07:05:42;20.10;;;9.15;;
65162;SDS011;51751;55.714;37.436;2023-04-01T07:08:09;15.80;;;9.05;;
65162;SDS011;51751;55.714;37.436;2023-04-01T07:14:01;17.30;;;8.57;;
65162;SDS011;51751;55.714;37.436;2023-04-01T07:16:56;15.25;;;8.77;;
65162;SDS011;51751;55.714;37.436;2023-04-01T07:19:30;18.00;;;9.07;;
65162;SDS011;51751;55.714;37.436;2023-04-01T07:22:40;14.93;;;8.10;;
65162;SDS011;51751;55.714;37.436;2023-04-01T07:25:29;17.45;;;9.07;;
65162;SDS011;51751;55.714;37.436;2023-04-01T07:28:16;21.70;;;9.23;;
65162;SDS011;51751;55.714;37.436;2023-04-01T07:39:28;19.92;;;9.93;;
65162;SDS011;51751;55.714;37.436;2023-04-01T07:50:28;19.38;;;9.35;;
65162;SDS011;51751;55.714;37.436;2023-04-01T07:58:20;15.90;;;8.35;;
65162;SDS011;51751;55.714;37.436;2023-04-01T08:06:35;14.30;;;7.07;;
65162;SDS011;51751;55.714;37.436;2023-04-01T08:15:26;15.48;;;7.50;;
65162;SDS011;51751;55.714;37.436;2023-04-01T08:21:00;16.38;;;8.13;;
65162;SDS011;51751;55.714;37.436;2023-04-01T08:23:30;17.63;;;8.57;;
65162;SDS011;51751;55.714;37.436;2023-04-01T08:28:44;15.48;;;8.43;;
65162;SDS011;51751;55.714;37.436;2023-04-01T08:33:56;15.15;;;8.65;;
65162;SDS011;51751;55.714;37.436;2023-04-01T08:36:44;17.58;;;9.43;;
65162;SDS011;51751;55.714;37.436;2023-04-01T08:39:34;13.00;;;7.37;;
65162;SDS011;51751;55.714;37.436;2023-04-01T08:42:18;14.85;;;7.97;;
65162;SDS011;51751;55.714;37.436;2023-04-01T08:45:21;13.38;;;6.97;;
65162;SDS011;51751;55.714;37.436;2023-04-01T08:53:59;12.75;;;6.95;;
65162;SDS011;51751;55.714;37.436;2023-04-01T08:56:36;13.57;;;6.13;;
65162;SDS011;51751;55.714;37.436;2023-04-01T08:59:23;15.75;;;6.35;;
65162;SDS011;51751;55.714;37.436;2023-04-01T09:02:08;14.18;;;6.85;;
65162;SDS011;51751;55.714;37.436;2023-04-01T09:29:39;13.73;;;6.28;;
65162;SDS011;51751;55.714;37.436;2023-04-01T09:50:13;10.40;;;5.00;;
65162;SDS011;51751;55.714;37.436;2023-04-01T09:53:06;21.77;;;5.75;;
65162;SDS011;51751;55.714;37.436;2023-04-01T10:53:21;10.20;;;3.58;;
65162;SDS011;51751;55.714;37.436;2023-04-01T11:11:52;6.18;;;3.15;;
65162;SDS011;51751;55.714;37.436;2023-04-01T11:28:48;8.38;;;3.60;;
65162;SDS011;51751;55.714;37.436;2023-04-01T11:31:29;5.50;;;3.08;;
65162;SDS011;51751;55.714;37.436;2023-04-01T11:37:21;5.22;;;3.10;;
65162;SDS011;51751;55.714;37.436;2023-04-01T11:47:07;7.95;;;3.55;;
65162;SDS011;51751;55.714;37.436;2023-04-01T11:55:32;7.78;;;3.38;;
65162;SDS011;51751;55.714;37.436;2023-04-01T11:58:47;6.95;;;3.45;;
65162;SDS011;51751;55.714;37.436;2023-04-01T12:01:42;6.33;;;3.40;;
65162;SDS011;51751;55.714;37.436;2023-04-01T12:15:29;19.45;;;6.60;;
65162;SDS011;51751;55.714;37.436;2023-04-01T12:20:50;5.78;;;3.42;;
65162;SDS011;51751;55.714;37.436;2023-04-01T12:43:19;4.07;;;3.00;;
65162;SDS011;51751;55.714;37.436;2023-04-01T12:46:01;7.90;;;3.20;;
65162;SDS011;51751;55.714;37.436;2023-04-01T12:56:53;15.43;;;4.20;;
65162;SDS011;51751;55.714;37.436;2023-04-01T13:16:27;6.85;;;4.20;;
65162;SDS011;51751;55.714;37.436;2023-04-01T13:27:16;12.02;;;5.47;;
65162;SDS011;51751;55.714;37.436;2023-04-01T13:38:35;11.77;;;6.00;;
65162;SDS011;51751;55.714;37.436;2023-04-01T13:43:58;9.25;;;4.00;;
65162;SDS011;51751;55.714;37.436;2023-04-01T13:49:22;7.65;;;4.47;;
65162;SDS011;51751;55.714;37.436;2023-04-01T13:57:27;9.70;;;4.30;;
65162;SDS011;51751;55.714;37.436;2023-04-01T14:11:41;17.17;;;5.80;;
65162;SDS011;51751;55.714;37.436;2023-04-01T14:17:08;11.68;;;5.60;;
65162;SDS011;51751;55.714;37.436;2023-04-01T14:19:43;11.95;;;5.22;;
65162;SDS011;51751;55.714;37.436;2023-04-01T14:22:33;9.07;;;5.05;;
65162;SDS011;51751;55.714;37.436;2023-04-01T14:27:39;11.73;;;5.90;;
65162;SDS011;51751;55.714;37.436;2023-04-01T14:36:24;8.35;;;5.28;;
65162;SDS011;51751;55.714;37.436;2023-04-01T14:47:34;8.98;;;5.28;;
65162;SDS011;51751;55.714;37.436;2023-04-01T14:52:44;10.75;;;5.75;;
65162;SDS011;51751;55.714;37.436;2023-04-01T14:58:17;13.23;;;6.20;;
65162;SDS011;51751;55.714;37.436;2023-04-01T15:32:18;13.40;;;6.78;;
65162;SDS011;51751;55.714;37.436;2023-04-01T15:35:08;11.68;;;7.65;;
65162;SDS011;51751;55.714;37.436;2023-04-01T15:49:08;22.95;;;9.90;;
65162;SDS011;51751;55.714;37.436;2023-04-01T15:56:46;22.77;;;8.65;;
65162;SDS011;51751;55.714;37.436;2023-04-01T15:59:28;12.68;;;7.28;;
65162;SDS011;51751;55.714;37.436;2023-04-01T16:15:50;10.63;;;6.18;;
65162;SDS011;51751;55.714;37.436;2023-04-01T16:23:29;9.13;;;5.78;;
65162;SDS011;51751;55.714;37.436;2023-04-01T16:28:48;9.60;;;5.82;;
65162;SDS011;51751;55.714;37.436;2023-04-01T16:37:15;8.45;;;4.90;;
65162;SDS011;51751;55.714;37.436;2023-04-01T16:40:03;9.00;;;5.90;;
65162;SDS011;51751;55.714;37.436;2023-04-01T16:45:24;8.98;;;5.40;;
65162;SDS011;51751;55.714;37.436;2023-04-01T16:47:56;10.45;;;6.10;;
65162;SDS011;51751;55.714;37.436;2023-04-01T16:50:48;8.93;;;5.45;;
65162;SDS011;51751;55.714;37.436;2023-04-01T16:56:08;13.50;;;5.53;;
65162;SDS011;51751;55.714;37.436;2023-04-01T16:59:13;11.00;;;5.90;;
65162;SDS011;51751;55.714;37.436;2023-04-01T17:01:47;12.45;;;7.38;;
65162;SDS011;51751;55.714;37.436;2023-04-01T17:04:19;18.70;;;11.02;;
65162;SDS011;51751;55.714;37.436;2023-04-01T17:12:55;12.52;;;8.60;;
65162;SDS011;51751;55.714;37.436;2023-04-01T17:29:23;14.15;;;7.97;;
65162;SDS011;51751;55.714;37.436;2023-04-01T17:35:08;11.65;;;7.13;;
65162;SDS011;51751;55.714;37.436;2023-04-01T17:42:59;14.60;;;8.50;;
65162;SDS011;51751;55.714;37.436;2023-04-01T17:45:37;22.92;;;11.73;;
65162;SDS011;51751;55.714;37.436;2023-04-01T17:54:20;14.98;;;9.25;;
65162;SDS011;51751;55.714;37.436;2023-04-01T17:59:36;13.73;;;7.80;;
65162;SDS011;51751;55.714;37.436;2023-04-01T18:02:20;14.90;;;9.20;;
65162;SDS011;51751;55.714;37.436;2023-04-01T18:31:38;12.10;;;7.35;;
65162;SDS011;51751;55.714;37.436;2023-04-01T18:34:10;13.68;;;7.40;;
65162;SDS011;51751;55.714;37.436;2023-04-01T18:36:44;13.38;;;7.82;;
65162;SDS011;51751;55.714;37.436;2023-04-01T18:39:17;14.50;;;7.18;;
65162;SDS011;51751;55.714;37.436;2023-04-01T18:42:07;11.18;;;7.07;;
65162;SDS011;51751;55.714;37.436;2023-04-01T18:44:56;13.32;;;6.90;;
65162;SDS011;51751;55.714;37.436;2023-04-01T18:47:54;19.48;;;6.78;;
65162;SDS011;51751;55.714;37.436;2023-04-01T18:50:43;14.57;;;7.60;;
65162;SDS011;51751;55.714;37.436;2023-04-01T18:53:42;12.77;;;7.10;;
65162;SDS011;51751;55.714;37.436;2023-04-01T18:56:14;10.68;;;7.03;;
65162;SDS011;51751;55.714;37.436;2023-04-01T19:01:38;15.13;;;7.95;;
65162;SDS011;51751;55.714;37.436;2023-04-01T19:06:48;11.63;;;7.57;;
65162;SDS011;51751;55.714;37.436;2023-04-01T19:09:29;15.52;;;7.90;;
65162;SDS011;51751;55.714;37.436;2023-04-01T19:30:45;12.40;;;7.63;;
65162;SDS011;51751;55.714;37.436;2023-04-01T19:36:09;12.85;;;7.97;;
65162;SDS011;51751;55.714;37.436;2023-04-01T19:38:49;15.85;;;8.15;;
65162;SDS011;51751;55.714;37.436;2023-04-01T19:47:02;15.13;;;8.63;;
65162;SDS011;51751;55.714;37.436;2023-04-01T19:49:41;15.23;;;8.65;;
65162;SDS011;51751;55.714;37.436;2023-04-01T19:52:37;13.18;;;7.95;;
65162;SDS011;51751;55.714;37.436;2023-04-01T20:00:57;15.90;;;9.23;;
65162;SDS011;51751;55.714;37.436;2023-04-01T20:11:43;14.50;;;9.27;;
65162;SDS011;51751;55.714;37.436;2023-04-01T20:14:40;15.75;;;9.07;;
65162;SDS011;51751;55.714;37.436;2023-04-01T20:20:20;14.20;;;8.57;;
65162;SDS011;51751;55.714;37.436;2023-04-01T20:26:06;20.15;;;9.95;;
65162;SDS011;51751;55.714;37.436;2023-04-01T20:28:45;17.20;;;9.15;;
65162;SDS011;51751;55.714;37.436;2023-04-01T20:48:50;15.38;;;9.55;;
65162;SDS011;51751;55.714;37.436;2023-04-01T20:51:22;15.02;;;9.25;;
65162;SDS011;51751;55.714;37.436;2023-04-01T20:53:51;15.85;;;9.18;;
65162;SDS011;51751;55.714;37.436;2023-04-01T21:12:51;16.73;;;8.98;;
65162;SDS011;51751;55.714;37.436;2023-04-01T21:15:21;16.13;;;8.43;;
65162;SDS011;51751;55.714;37.436;2023-04-01T21:26:49;13.05;;;8.50;;
65162;SDS011;51751;55.714;37.436;2023-04-01T21:35:48;14.00;;;8.50;;
65162;SDS011;51751;55.714;37.436;2023-04-01T21:44:18;13.68;;;7.75;;
65162;SDS011;51751;55.714;37.436;2023-04-01T22:06:32;16.48;;;9.25;;
65162;SDS011;51751;55.714;37.436;2023-04-01T22:09:12;17.45;;;10.10;;
65162;SDS011;51751;55.714;37.436;2023-04-01T22:17:40;16.70;;;9.05;;
65162;SDS011;51751;55.714;37.436;2023-04-01T22:20:04;20.02;;;10.85;;
65162;SDS011;51751;55.714;37.436;2023-04-01T22:26:09;18.52;;;9.90;;
65162;SDS011;51751;55.714;37.436;2023-04-01T22:31:12;16.80;;;10.40;;
65162;SDS011;51751;55.714;37.436;2023-04-01T22:34:06;16.42;;;10.27;;
65162;SDS011;51751;55.714;37.436;2023-04-01T22:45:18;20.48;;;10.30;;
65162;SDS011;51751;55.714;37.436;2023-04-01T22:50:59;21.17;;;10.38;;
65162;SDS011;51751;55.714;37.436;2023-04-01T22:53:52;17.08;;;10.25;;
65162;SDS011;51751;55.714;37.436;2023-04-01T22:56:30;17.50;;;10.23;;
65162;SDS011;51751;55.714;37.436;2023-04-01T23:02:26;17.98;;;10.40;;
65162;SDS011;51751;55.714;37.436;2023-04-01T23:05:15;21.15;;;10.77;;
65162;SDS011;51751;55.714;37.436;2023-04-01T23:08:16;19.23;;;10.90;;
65162;SDS011;51751;55.714;37.436;2023-04-01T23:10:52;17.63;;;10.45;;
65162;SDS011;51751;55.714;37.436;2023-04-01T23:14:04;26.27;;;15.15;;
65162;SDS011;51751;55.714;37.436;2023-04-01T23:16:10;18.75;;;11.23;;
65162;SDS011;51751;55.714;37.436;2023-04-01T23:18:42;19.92;;;10.90;;
65162;SDS011;51751;55.714;37.436;2023-04-01T23:21:24;21.63;;;11.25;;
65162;SDS011;51751;55.714;37.436;2023-04-01T23:26:52;18.27;;;10.48;;
65162;SDS011;51751;55.714;37.436;2023-04-01T23:29:22;18.70;;;10.88;;
65162;SDS011;51751;55.714;37.436;2023-04-01T23:31:56;21.25;;;11.95;;
65162;SDS011;51751;55.714;37.436;2023-04-01T23:34:26;20.25;;;11.23;;
65162;SDS011;51751;55.714;37.436;2023-04-01T23:37:02;21.52;;;11.27;;
65162;SDS011;51751;55.714;37.436;2023-04-01T23:39:30;20.23;;;11.15;;
65162;SDS011;51751;55.714;37.436;2023-04-01T23:42:24;21.48;;;10.90;;
65162;SDS011;51751;55.714;37.436;2023-04-01T23:45:05;18.98;;;11.68;;
65162;SDS011;51751;55.714;37.436;2023-04-01T23:47:39;22.25;;;12.50;;
65162;SDS011;51751;55.714;37.436;2023-04-01T23:50:13;21.48;;;10.70;;
65162;SDS011;51751;55.714;37.436;2023-04-01T23:53:00;20.48;;;11.45;;
65162;SDS011;51751;55.714;37.436;2023-04-01T23:55:32;20.58;;;11.63;;
65162;SDS011;51751;55.714;37.436;2023-04-01T23:58:42;24.25;;;10.85;;
